Time;durP1;ratioP1;P1;durP2;ratioP2;P2;SDS_P1;SDS_P2;PMS_P1;PMS_P2;Temp;Humidity;BMP_temperature;BMP_pressure;BME280_temperature;BME280_humidity;BME280_pressure;Samples;Min_cycle;Max_cycle;Signal;HPM_P1;HPM_P2
2021/08/20 00:00:48;;;;;;;2.45;0.70;;;;;;;20.63;69.14;100455.66;5045541;28;20021;-96
2021/08/20 06:44:14;;;;;;;2.70;1.13;;;;;;;21.29;67.02;100469.69;5231360;23;20038;-96
2021/08/20 06:46:41;;;;;;;7.05;1.95;;;;;;;21.27;66.68;100466.38;5000178;28;20104;-96
2021/08/20 06:49:07;;;;;;;3.90;1.98;;;;;;;21.24;65.57;100464.03;4992193;28;20033;-96
2021/08/20 06:51:34;;;;;;;8.05;2.53;;;;;;;21.33;66.11;100472.84;4992628;28;20090;-96
2021/08/20 06:54:00;;;;;;;4.03;2.03;;;;;;;21.41;66.28;100469.31;4996084;28;20013;-96
2021/08/20 06:56:25;;;;;;;2.72;1.90;;;;;;;21.35;66.05;100471.66;4995962;28;20027;-96
2021/08/20 06:58:51;;;;;;;8.65;1.88;;;;;;;21.42;66.07;100474.47;4994467;28;20030;-96
2021/08/20 07:01:17;;;;;;;4.32;2.08;;;;;;;21.61;65.71;100489.28;4993007;28;20026;-96
2021/08/20 07:03:42;;;;;;;3.90;1.73;;;;;;;21.51;65.86;100478.00;4995637;28;20022;-96
2021/08/20 07:06:08;;;;;;;9.00;1.83;;;;;;;21.71;65.18;100481.06;4995471;28;20111;-96
2021/08/20 07:08:34;;;;;;;7.75;2.22;;;;;;;21.73;65.18;100479.88;4991899;28;20033;-96
2021/08/20 07:10:59;;;;;;;3.88;2.05;;;;;;;21.95;63.86;100490.78;4991722;28;20030;-95
2021/08/20 07:13:53;;;;;;;7.93;1.90;;;;;;;22.15;63.92;100493.81;5193390;23;21342;-96
2021/08/20 07:16:18;;;;;;;6.30;2.00;;;;;;;22.01;63.59;100482.03;5000141;28;20038;-96
2021/08/20 07:18:44;;;;;;;3.33;2.00;;;;;;;22.13;64.11;100485.13;5284009;23;21133;-96
2021/08/20 07:21:10;;;;;;;2.33;2.05;;;;;;;22.17;63.56;100489.13;4994669;28;20465;-96
2021/08/20 07:23:35;;;;;;;5.97;2.20;;;;;;;22.21;63.52;100487.75;4992335;28;20023;-96
2021/08/20 07:26:04;;;;;;;3.00;1.80;;;;;;;22.32;62.96;100486.53;4992268;28;20027;-96
2021/08/20 07:28:29;;;;;;;5.82;2.17;;;;;;;22.44;63.01;100503.84;4990241;28;20026;-96
2021/08/20 07:30:55;;;;;;;4.28;1.95;;;;;;;22.51;62.57;100499.44;4991339;28;20065;-96
2021/08/20 07:33:21;;;;;;;8.82;2.22;;;;;;;22.59;62.42;100487.84;4988711;28;20023;-96
2021/08/20 07:35:47;;;;;;;7.38;2.08;;;;;;;22.67;61.84;100498.47;4988780;28;20034;-96
2021/08/20 07:38:13;;;;;;;4.18;2.17;;;;;;;22.56;61.71;100499.72;4990782;28;20065;-95
2021/08/20 07:40:39;;;;;;;5.78;2.10;;;;;;;22.66;61.88;100504.00;5007897;23;20055;-96
2021/08/20 07:43:05;;;;;;;6.90;1.92;;;;;;;22.62;62.17;100500.00;5010858;23;20137;-96
2021/08/20 07:45:31;;;;;;;2.78;1.80;;;;;;;22.67;62.58;100490.44;4994184;28;20074;-96
2021/08/20 07:47:56;;;;;;;4.65;2.13;;;;;;;22.77;62.41;100500.88;4993152;28;20051;-96
2021/08/20 07:50:22;;;;;;;2.97;1.58;;;;;;;22.88;61.34;100496.91;4988690;28;20086;-96
2021/08/20 07:52:48;;;;;;;3.40;2.03;;;;;;;22.88;61.98;100494.25;5023512;23;20050;-96
2021/08/20 07:55:14;;;;;;;4.03;2.00;;;;;;;23.01;61.71;100504.34;4988675;28;20030;-96
2021/08/20 07:57:47;;;;;;;3.17;1.52;;;;;;;23.25;61.01;100506.75;4985624;28;20031;-96
2021/08/20 08:00:14;;;;;;;3.83;2.20;;;;;;;23.36;60.56;100502.78;4983989;28;20027;-96
2021/08/20 08:02:39;;;;;;;4.80;1.65;;;;;;;23.54;59.48;100505.09;4982495;28;20030;-96
2021/08/20 08:05:05;;;;;;;4.82;2.05;;;;;;;23.61;59.48;100506.00;4982919;28;20026;-96
2021/08/20 08:07:31;;;;;;;8.13;1.83;;;;;;;23.90;58.85;100509.69;4998250;28;20037;-96
2021/08/20 08:09:57;;;;;;;5.38;1.80;;;;;;;23.93;58.37;100498.56;5084635;23;20029;-96
2021/08/20 08:12:22;;;;;;;3.88;1.65;;;;;;;24.08;58.38;100515.44;4975992;28;20041;-96
2021/08/20 08:14:48;;;;;;;4.68;1.58;;;;;;;24.13;58.69;100507.66;4975507;28;20513;-96
2021/08/20 08:17:13;;;;;;;3.03;1.73;;;;;;;24.29;58.38;100513.78;4975089;28;20031;-96
2021/08/20 08:19:39;;;;;;;2.40;1.38;;;;;;;24.44;57.36;100501.13;4976352;28;20111;-96
2021/08/20 08:22:04;;;;;;;3.88;1.20;;;;;;;24.51;56.80;100507.44;4974408;28;20029;-96
2021/08/20 08:24:30;;;;;;;3.78;1.50;;;;;;;24.70;56.46;100507.78;4975161;28;20062;-96
2021/08/20 08:26:55;;;;;;;4.43;1.65;;;;;;;24.83;55.84;100517.81;4973594;28;20395;-95
2021/08/20 08:29:21;;;;;;;3.83;1.02;;;;;;;25.15;55.10;100524.41;4974046;28;20031;-96
2021/08/20 08:31:47;;;;;;;2.40;1.30;;;;;;;25.38;55.67;100517.97;4974726;29;20111;-96
2021/08/20 08:34:13;;;;;;;8.02;1.60;;;;;;;25.53;55.31;100526.72;4974667;28;20031;-96
2021/08/20 08:36:39;;;;;;;4.75;1.20;;;;;;;25.91;53.53;100534.38;4972606;28;20035;-95
2021/08/20 08:39:05;;;;;;;3.22;1.30;;;;;;;25.88;53.35;100524.78;4971032;29;20032;-96
2021/08/20 08:41:33;;;;;;;5.60;1.75;;;;;;;25.81;52.97;100520.41;4971345;28;20023;-96
2021/08/20 08:43:59;;;;;;;6.32;1.70;;;;;;;25.84;53.96;100528.09;4971947;28;20031;-96
2021/08/20 08:46:26;;;;;;;3.20;1.25;;;;;;;26.08;53.61;100518.69;4966036;28;20686;-96
2021/08/20 08:48:52;;;;;;;4.38;1.10;;;;;;;26.07;53.11;100525.94;4965524;28;20027;-95
2021/08/20 08:51:19;;;;;;;4.20;1.25;;;;;;;26.16;51.66;100517.66;4964531;28;20031;-95
2021/08/20 08:53:46;;;;;;;6.13;1.63;;;;;;;26.07;51.89;100520.53;4963870;28;20031;-96
2021/08/20 08:56:11;;;;;;;6.30;1.10;;;;;;;26.20;51.52;100526.97;4963219;28;20027;-95
2021/08/20 08:58:37;;;;;;;3.10;0.95;;;;;;;26.42;51.64;100530.31;4964107;29;20054;-96
2021/08/20 09:01:27;;;;;;;5.80;1.48;;;;;;;26.66;51.27;100534.31;4978009;28;20051;-95
2021/08/20 09:04:10;;;;;;;4.13;1.88;;;;;;;26.62;51.46;100533.06;4951094;28;20093;-94
2021/08/20 09:06:41;;;;;;;2.83;1.15;;;;;;;26.20;51.54;100540.44;4959184;28;20030;-94
2021/08/20 09:09:09;;;;;;;5.38;1.27;;;;;;;26.05;53.46;100541.44;4959647;28;20037;-95
2021/08/20 09:11:34;;;;;;;3.50;1.30;;;;;;;26.24;50.79;100534.44;4972197;28;20490;-95
2021/08/20 09:14:00;;;;;;;4.20;1.20;;;;;;;26.14;51.98;100539.38;4960329;28;20022;-96
2021/08/20 09:16:38;;;;;;;6.70;1.20;;;;;;;26.20;52.36;100537.75;4960704;29;20078;-94
2021/08/20 09:19:12;;;;;;;2.75;1.10;;;;;;;26.42;51.78;100536.56;4961388;28;20031;-94
2021/08/20 09:21:38;;;;;;;4.03;1.15;;;;;;;26.39;51.10;100531.56;4960687;28;20114;-94
2021/08/20 09:24:27;;;;;;;3.70;1.20;;;;;;;26.55;50.75;100535.72;4958804;28;20118;-94
2021/08/20 09:26:53;;;;;;;4.00;1.85;;;;;;;26.47;51.08;100539.44;4960030;28;20509;-95
2021/08/20 09:29:19;;;;;;;4.85;1.55;;;;;;;26.48;51.48;100542.97;4959246;28;20035;-96
2021/08/20 09:31:50;;;;;;;5.55;1.63;;;;;;;26.76;50.77;100548.19;4959499;29;20537;-96
2021/08/20 09:34:16;;;;;;;4.43;1.43;;;;;;;26.61;50.70;100555.66;4958626;28;20054;-95
2021/08/20 09:36:41;;;;;;;4.07;1.27;;;;;;;26.33;50.91;100542.34;4958801;28;20402;-96
2021/08/20 09:39:06;;;;;;;6.03;1.40;;;;;;;26.42;50.94;100538.41;4958489;28;20035;-96
2021/08/20 09:41:34;;;;;;;5.10;1.60;;;;;;;26.51;50.19;100543.38;4958277;28;20031;-95
2021/08/20 09:44:03;;;;;;;6.40;1.80;;;;;;;26.62;50.45;100549.22;4957743;28;20385;-95
2021/08/20 09:46:43;;;;;;;4.57;1.70;;;;;;;26.75;49.78;100545.72;4957529;28;20489;-96
2021/08/20 09:49:08;;;;;;;6.32;1.35;;;;;;;26.60;50.55;100545.91;4957327;28;20031;-96
2021/08/20 09:51:35;;;;;;;3.10;1.48;;;;;;;26.76;49.46;100548.19;4957280;29;20042;-95
2021/08/20 09:54:26;;;;;;;5.00;1.15;;;;;;;26.83;49.45;100542.81;4972137;28;20027;-94
2021/08/20 09:56:52;;;;;;;9.23;1.23;;;;;;;26.85;49.75;100546.94;4949975;28;20046;-95
2021/08/20 09:59:17;;;;;;;2.25;1.00;;;;;;;26.91;49.37;100554.19;4957115;28;20293;-94
2021/08/20 10:01:45;;;;;;;1.90;0.60;;;;;;;27.09;48.77;100563.50;4957451;28;20038;-95
2021/08/20 10:04:15;;;;;;;1.85;1.10;;;;;;;27.06;49.59;100559.38;4957321;28;20027;-95
2021/08/20 10:06:46;;;;;;;1.83;0.80;;;;;;;27.20;48.25;100560.19;4957055;28;20050;-95
2021/08/20 10:09:14;;;;;;;3.83;1.25;;;;;;;27.06;48.87;100553.16;4957092;28;20038;-95
2021/08/20 10:11:51;;;;;;;2.88;1.05;;;;;;;27.01;49.97;100561.03;4956943;28;20035;-95
2021/08/20 10:14:20;;;;;;;3.85;1.38;;;;;;;27.04;49.40;100566.84;4957037;28;20028;-94
2021/08/20 10:16:45;;;;;;;2.80;1.15;;;;;;;26.62;49.42;100557.28;4957300;28;20023;-95
2021/08/20 10:19:11;;;;;;;5.75;1.15;;;;;;;26.51;49.66;100567.63;4959480;28;20446;-94
2021/08/20 10:21:39;;;;;;;1.90;0.88;;;;;;;26.68;48.95;100565.41;4957449;28;20492;-95
2021/08/20 10:24:07;;;;;;;4.50;1.02;;;;;;;26.83;48.74;100564.34;4955540;28;20122;-95
2021/08/20 10:26:33;;;;;;;3.75;1.10;;;;;;;26.65;51.52;100567.66;4956683;28;20023;-95
2021/08/20 10:29:01;;;;;;;4.00;1.17;;;;;;;26.74;49.99;100562.88;4957140;28;20102;-95
2021/08/20 10:31:27;;;;;;;5.32;0.98;;;;;;;27.10;48.94;100565.16;4956427;28;20023;-96
2021/08/20 10:33:52;;;;;;;3.65;1.20;;;;;;;27.18;49.10;100556.03;4956793;28;20035;-95
2021/08/20 10:36:39;;;;;;;3.58;1.15;;;;;;;27.10;48.40;100557.09;4956942;28;20054;-95
2021/08/20 10:39:06;;;;;;;5.75;1.08;;;;;;;26.65;48.83;100568.47;4956439;28;20071;-95
2021/08/20 10:41:32;;;;;;;3.63;1.33;;;;;;;27.01;48.17;100566.41;4956997;28;20024;-96
2021/08/20 10:44:03;;;;;;;3.55;1.20;;;;;;;27.01;48.29;100561.84;4956552;28;20038;-96
2021/08/20 10:46:32;;;;;;;6.88;1.67;;;;;;;27.60;47.92;100560.09;4956791;28;20030;-96
2021/08/20 10:49:24;;;;;;;7.88;1.20;;;;;;;28.08;46.13;100551.63;4971319;28;20130;-95
2021/08/20 10:51:50;;;;;;;5.18;1.27;;;;;;;28.33;45.51;100553.53;4953390;29;20649;-96
2021/08/20 10:54:26;;;;;;;7.07;1.33;;;;;;;28.94;45.52;100551.22;4956606;28;20110;-95
2021/08/20 10:56:52;;;;;;;5.15;0.88;;;;;;;29.20;43.46;100547.47;4957122;28;20031;-96
2021/08/20 10:59:39;;;;;;;5.25;1.17;;;;;;;29.30;42.95;100545.06;4956631;28;20035;-96
2021/08/20 11:02:22;;;;;;;2.03;1.13;;;;;;;29.09;42.66;100551.72;4957266;28;20023;-96
2021/08/20 11:04:59;;;;;;;3.58;1.27;;;;;;;28.90;44.07;100552.72;4956697;28;20031;-95
2021/08/20 11:07:43;;;;;;;2.67;0.82;;;;;;;28.93;43.17;100553.13;4955971;29;20031;-96
2021/08/20 11:10:08;;;;;;;3.67;1.33;;;;;;;28.38;44.53;100550.19;4956891;29;20023;-95
2021/08/20 11:12:37;;;;;;;1.73;0.70;;;;;;;28.68;42.71;100550.41;4955787;28;20086;-96
2021/08/20 11:15:20;;;;;;;1.63;0.90;;;;;;;28.61;42.46;100544.22;4955638;28;20070;-95
2021/08/20 11:17:50;;;;;;;2.33;0.57;;;;;;;28.39;42.78;100551.84;4955505;28;20039;-94
2021/08/20 11:20:34;;;;;;;2.55;1.05;;;;;;;28.14;43.95;100549.09;4955603;28;20078;-95
2021/08/20 11:23:12;;;;;;;4.30;1.35;;;;;;;27.78;45.46;100556.69;4955313;28;20098;-95
2021/08/20 11:25:43;;;;;;;4.43;1.23;;;;;;;27.36;47.14;100558.09;4970198;28;20031;-94
2021/08/20 11:28:19;;;;;;;;;;;;;;;27.60;45.67;100560.09;4955755;29;20055;-96
2021/08/20 11:31:08;;;;;;;2.72;1.02;;;;;;;27.23;45.77;100554.38;4955360;28;20388;-95
2021/08/20 11:33:36;;;;;;;1.98;0.90;;;;;;;26.78;46.25;100556.91;4955162;28;20107;-96
2021/08/20 11:36:05;;;;;;;2.08;0.90;;;;;;;26.42;48.21;100558.09;4954923;28;20027;-96
2021/08/20 11:38:37;;;;;;;3.17;1.00;;;;;;;26.43;48.19;100562.44;4954898;28;20039;-96
2021/08/20 11:41:06;;;;;;;4.28;1.38;;;;;;;26.29;48.27;100563.44;4955638;29;20039;-95
2021/08/20 11:43:32;;;;;;;5.40;1.10;;;;;;;26.01;49.67;100567.09;4970094;28;20106;-95
2021/08/20 11:46:05;;;;;;;1.95;1.15;;;;;;;26.15;49.48;100569.84;4955108;28;20028;-94
2021/08/20 11:48:40;;;;;;;2.72;1.20;;;;;;;26.30;49.08;100573.16;4954051;29;20023;-95
2021/08/20 11:51:06;;;;;;;2.50;1.20;;;;;;;26.03;49.78;100570.41;4955502;28;20087;-95
2021/08/20 11:53:31;;;;;;;5.25;1.50;;;;;;;26.31;49.38;100564.06;4953649;28;20102;-95
2021/08/20 11:56:10;;;;;;;2.70;1.17;;;;;;;26.47;48.59;100569.06;4954817;28;20023;-95
2021/08/20 11:58:36;;;;;;;3.63;1.30;;;;;;;26.46;49.79;100566.56;4954860;28;20035;-95
2021/08/20 12:01:01;;;;;;;5.50;2.10;;;;;;;26.61;49.49;100561.84;4955084;28;20023;-95
2021/08/20 12:03:27;;;;;;;2.22;1.33;;;;;;;26.75;48.95;100568.06;4954823;29;20039;-96
2021/08/20 12:06:06;;;;;;;2.75;1.63;;;;;;;26.99;48.18;100561.22;4954909;28;20031;-95
2021/08/20 12:08:32;;;;;;;5.00;1.42;;;;;;;26.64;48.61;100563.31;4954740;28;20034;-95
2021/08/20 12:10:57;;;;;;;2.38;1.30;;;;;;;26.48;49.26;100565.34;4954687;28;20031;-96
2021/08/20 12:13:22;;;;;;;3.28;1.27;;;;;;;26.30;50.18;100575.84;4954814;28;20413;-95
2021/08/20 12:15:48;;;;;;;4.30;1.83;;;;;;;26.22;50.06;100573.34;4954503;28;20039;-95
2021/08/20 12:18:18;;;;;;;4.43;1.23;;;;;;;26.11;50.48;100572.09;4954526;29;20035;-95
2021/08/20 12:20:43;;;;;;;3.17;1.20;;;;;;;26.07;50.32;100577.03;4954778;28;20059;-96
2021/08/20 12:23:08;;;;;;;2.08;1.00;;;;;;;25.84;50.50;100581.88;4954496;28;20035;-96
2021/08/20 12:25:38;;;;;;;3.85;1.15;;;;;;;25.63;50.90;100578.28;4954803;28;20558;-96
2021/08/20 12:28:13;;;;;;;4.53;1.13;;;;;;;25.64;50.52;100577.25;4954805;28;20106;-96
2021/08/20 12:30:40;;;;;;;3.22;1.13;;;;;;;25.46;51.17;100579.63;4954216;28;20047;-96
2021/08/20 12:33:05;;;;;;;2.60;1.20;;;;;;;25.26;51.72;100579.53;4969460;28;20386;-95
2021/08/20 12:35:31;;;;;;;2.80;1.63;;;;;;;25.32;52.12;100578.72;4953192;28;20035;-96
2021/08/20 12:38:01;;;;;;;3.20;1.42;;;;;;;25.36;52.31;100579.16;4954364;28;20034;-96
2021/08/20 12:40:34;;;;;;;2.22;0.95;;;;;;;25.50;52.22;100581.72;4956425;28;20110;-95
2021/08/20 12:43:00;;;;;;;2.50;0.90;;;;;;;25.39;52.25;100574.19;4958698;28;20031;-95
2021/08/20 12:45:25;;;;;;;1.88;1.00;;;;;;;25.22;53.22;100579.06;4954237;28;20023;-95
2021/08/20 12:48:09;;;;;;;4.57;1.20;;;;;;;25.52;52.81;100581.53;4954445;28;20058;-95
2021/08/20 12:50:36;;;;;;;8.80;1.38;;;;;;;25.32;53.43;100586.78;4976110;28;20038;-96
2021/08/20 12:53:08;;;;;;;3.10;1.38;;;;;;;25.36;53.73;100589.91;4959111;28;20354;-95
2021/08/20 12:55:38;;;;;;;;;;;;;;;25.45;54.49;100591.41;4958954;28;20500;-95
2021/08/20 12:58:05;;;;;;;4.30;1.30;;;;;;;25.32;55.21;100584.94;4958378;28;19961;-96
2021/08/20 13:00:33;;;;;;;6.10;2.03;;;;;;;25.33;55.24;100586.56;4958248;28;20031;-96
2021/08/20 13:03:06;;;;;;;3.08;1.30;;;;;;;25.38;54.83;100599.44;4958160;28;20102;-94
2021/08/20 13:05:31;;;;;;;4.15;1.30;;;;;;;25.26;55.38;100588.41;4956903;28;20034;-94
2021/08/20 13:07:57;;;;;;;3.47;0.93;;;;;;;25.43;54.00;100594.28;4958136;29;20039;-95
2021/08/20 13:10:22;;;;;;;5.22;1.50;;;;;;;25.58;53.81;100583.41;4957813;28;20023;-94
2021/08/20 13:12:47;;;;;;;3.80;0.88;;;;;;;25.66;53.46;100582.44;4957637;29;20070;-92
2021/08/20 13:15:15;;;;;;;2.65;1.08;;;;;;;25.91;52.42;100585.47;4957895;28;20493;-94
2021/08/20 13:17:41;;;;;;;6.30;1.20;;;;;;;26.02;52.35;100579.50;4957990;28;20474;-95
2021/08/20 13:20:07;;;;;;;3.03;0.82;;;;;;;26.19;52.49;100582.69;4972703;28;20027;-95
2021/08/20 13:22:34;;;;;;;5.35;1.30;;;;;;;26.37;51.44;100576.72;4957911;28;20030;-95
2021/08/20 13:25:00;;;;;;;2.42;1.08;;;;;;;26.54;50.89;100576.31;4957642;28;20426;-94
2021/08/20 13:27:25;;;;;;;1.80;1.13;;;;;;;26.38;51.21;100575.66;4957686;28;20038;-95
2021/08/20 13:29:50;;;;;;;2.17;0.80;;;;;;;25.64;53.21;100576.44;4957483;28;20110;-95
2021/08/20 13:32:16;;;;;;;2.88;1.02;;;;;;;25.60;53.48;100588.59;4957822;28;20035;-94
2021/08/20 13:34:41;;;;;;;6.85;1.35;;;;;;;25.73;52.96;100581.44;4957279;28;20023;-95
2021/08/20 13:37:06;;;;;;;2.17;1.08;;;;;;;25.28;55.52;100589.03;4957245;29;20075;-93
2021/08/20 13:39:32;;;;;;;2.42;1.30;;;;;;;25.34;56.31;100590.09;4972116;28;20023;-95
2021/08/20 13:41:57;;;;;;;2.47;1.40;;;;;;;25.38;56.71;100587.88;4957292;29;20551;-95
2021/08/20 13:44:22;;;;;;;2.85;1.25;;;;;;;25.34;56.72;100576.66;4956935;28;20027;-94
2021/08/20 13:46:48;;;;;;;4.03;1.52;;;;;;;25.38;57.22;100583.31;4957173;29;20027;-93
2021/08/20 13:49:15;;;;;;;5.13;1.55;;;;;;;25.47;56.85;100581.28;4956999;28;20024;-94
2021/08/20 13:51:41;;;;;;;2.53;1.80;;;;;;;25.60;55.99;100577.84;4956809;28;20107;-94
2021/08/20 13:54:07;;;;;;;3.92;1.85;;;;;;;25.65;56.18;100581.59;4956950;28;20110;-94
2021/08/20 13:56:33;;;;;;;3.50;1.75;;;;;;;25.70;55.84;100578.31;4956943;28;20418;-94
2021/08/20 13:58:59;;;;;;;3.70;1.73;;;;;;;25.90;55.71;100571.19;4957073;28;20504;-94
2021/08/20 14:01:24;;;;;;;2.97;1.23;;;;;;;26.22;55.61;100570.66;4956396;28;20059;-94
2021/08/20 14:03:49;;;;;;;2.85;1.60;;;;;;;26.41;54.35;100564.50;4956964;28;20093;-96
2021/08/20 14:06:15;;;;;;;3.40;1.40;;;;;;;26.70;53.50;100562.50;4956707;28;20082;-95
2021/08/20 14:08:40;;;;;;;4.05;1.40;;;;;;;26.65;52.62;100563.09;4956783;28;20078;-95
2021/08/20 14:11:07;;;;;;;15.00;3.50;;;;;;;27.03;51.79;100561.63;4971306;28;20035;-94
2021/08/20 14:13:33;;;;;;;13.23;1.80;;;;;;;27.13;51.08;100559.34;4956486;28;20031;-95
2021/08/20 14:15:59;;;;;;;2.85;1.50;;;;;;;27.22;50.97;100557.28;4956609;28;20058;-95
2021/08/20 14:18:25;;;;;;;3.97;1.85;;;;;;;27.47;51.53;100557.47;4956480;28;20063;-95
2021/08/20 14:20:50;;;;;;;3.78;1.60;;;;;;;27.67;50.50;100554.69;4956429;28;20050;-94
2021/08/20 14:23:16;;;;;;;3.08;1.63;;;;;;;27.77;50.02;100552.38;4956384;29;20031;-94
2021/08/20 14:25:43;;;;;;;4.60;1.20;;;;;;;27.83;50.24;100542.59;4956270;28;20027;-94
2021/08/20 14:28:08;;;;;;;5.72;1.85;;;;;;;28.01;49.36;100544.59;4956317;28;20031;-94
2021/08/20 14:30:34;;;;;;;2.70;1.13;;;;;;;28.07;49.39;100541.84;4956105;28;20030;-94
2021/08/20 14:33:01;;;;;;;4.57;1.10;;;;;;;28.25;49.18;100545.69;4971218;28;20030;-94
2021/08/20 14:35:26;;;;;;;16.42;1.92;;;;;;;28.49;47.37;100539.50;4956091;28;20071;-93
2021/08/20 14:37:52;;;;;;;4.05;0.85;;;;;;;28.18;46.97;100540.34;4956102;28;20143;-96
2021/08/20 14:40:17;;;;;;;4.00;1.20;;;;;;;28.43;46.65;100542.25;4956145;29;20114;-95
2021/08/20 14:42:42;;;;;;;3.65;0.93;;;;;;;28.37;46.80;100545.84;4956199;28;20020;-95
2021/08/20 14:45:08;;;;;;;1.90;0.90;;;;;;;28.32;47.21;100541.09;4956211;28;20035;-93
2021/08/20 14:47:34;;;;;;;27.58;2.08;;;;;;;28.31;46.62;100535.91;4956098;28;20032;-93
2021/08/20 14:49:59;;;;;;;6.45;1.02;;;;;;;28.37;47.21;100543.13;4955845;28;20038;-94
2021/08/20 14:52:25;;;;;;;23.00;1.70;;;;;;;28.40;46.15;100537.31;4955833;29;20034;-95
2021/08/20 14:54:51;;;;;;;8.93;2.35;;;;;;;28.20;46.32;100537.41;4955464;28;20037;-94
2021/08/20 14:57:16;;;;;;;3.08;0.93;;;;;;;28.13;46.65;100529.38;4955969;28;20023;-95
2021/08/20 14:59:41;;;;;;;4.10;1.63;;;;;;;28.03;47.46;100531.72;4955517;29;20109;-94
2021/08/20 15:02:10;;;;;;;4.90;1.10;;;;;;;27.87;47.59;100528.47;4955525;29;20031;-94
2021/08/20 15:04:35;;;;;;;3.22;1.13;;;;;;;27.67;48.80;100527.72;4955700;28;20513;-95
2021/08/20 15:07:01;;;;;;;1.52;0.80;;;;;;;27.52;49.33;100532.53;4955504;28;20114;-94
2021/08/20 15:09:26;;;;;;;2.05;1.05;;;;;;;27.46;49.26;100534.22;4955317;29;20478;-95
2021/08/20 15:11:51;;;;;;;1.77;0.75;;;;;;;27.27;50.15;100528.69;4954449;28;20058;-94
2021/08/20 15:14:17;;;;;;;3.78;1.05;;;;;;;27.01;50.13;100528.69;4955319;28;20413;-94
2021/08/20 15:16:42;;;;;;;6.18;1.20;;;;;;;26.92;50.28;100530.78;4955195;29;20154;-94
2021/08/20 15:19:07;;;;;;;5.30;1.05;;;;;;;26.67;51.29;100530.59;4955232;28;20508;-94
2021/08/20 15:21:34;;;;;;;14.90;1.60;;;;;;;26.57;51.71;100539.03;4955393;28;20031;-94
2021/08/20 15:24:00;;;;;;;2.95;1.42;;;;;;;26.56;51.25;100541.94;4954989;28;20098;-93
2021/08/20 15:26:26;;;;;;;3.72;2.08;;;;;;;26.44;51.16;100539.88;4955129;28;20159;-94
2021/08/20 15:28:51;;;;;;;3.05;1.60;;;;;;;26.22;53.21;100541.06;4955130;28;20140;-94
2021/08/20 15:31:16;;;;;;;3.83;1.75;;;;;;;26.10;53.04;100543.50;4955065;29;20042;-94
2021/08/20 15:33:42;;;;;;;6.45;1.80;;;;;;;25.76;54.14;100552.47;4955043;29;20027;-93
2021/08/20 15:36:07;;;;;;;7.10;1.65;;;;;;;25.62;54.77;100551.59;4955058;28;20016;-94
2021/08/20 15:38:33;;;;;;;5.45;1.60;;;;;;;25.37;55.64;100546.69;4954935;28;20415;-94
2021/08/20 15:40:59;;;;;;;10.60;1.88;;;;;;;25.30;56.15;100554.72;4954806;28;20035;-94
2021/08/20 15:43:25;;;;;;;3.10;1.75;;;;;;;25.36;56.14;100560.34;4954736;28;20478;-94
2021/08/20 15:45:50;;;;;;;4.47;1.40;;;;;;;25.11;56.60;100553.53;4954672;28;20067;-93
2021/08/20 15:48:16;;;;;;;3.50;1.20;;;;;;;25.04;56.87;100551.81;4954738;28;20067;-94
2021/08/20 15:50:42;;;;;;;3.58;1.40;;;;;;;24.99;57.01;100552.41;4969477;28;20038;-93
2021/08/20 15:53:09;;;;;;;4.18;1.77;;;;;;;24.85;57.54;100547.97;4953638;28;20043;-95
2021/08/20 15:55:35;;;;;;;3.13;1.27;;;;;;;24.74;58.00;100558.22;4954592;28;20024;-94
2021/08/20 15:58:00;;;;;;;3.80;1.27;;;;;;;24.61;58.39;100555.41;4954506;28;20090;-95
2021/08/20 16:00:26;;;;;;;2.65;1.35;;;;;;;24.59;57.87;100543.22;4954499;28;20031;-95
2021/08/20 16:02:52;;;;;;;2.45;1.30;;;;;;;24.52;58.66;100552.00;4954957;28;20043;-95
2021/08/20 16:05:18;;;;;;;4.65;1.92;;;;;;;24.53;59.35;100548.31;4954725;28;20086;-94
2021/08/20 16:07:43;;;;;;;2.85;1.60;;;;;;;24.59;59.78;100546.72;4954459;28;20031;-93
2021/08/20 16:10:11;;;;;;;5.05;1.80;;;;;;;24.67;59.04;100546.59;4954330;28;20023;-94
2021/08/20 16:12:37;;;;;;;2.92;1.67;;;;;;;24.65;59.69;100540.59;4954625;28;20118;-95
2021/08/20 16:15:03;;;;;;;4.00;1.70;;;;;;;24.64;59.84;100543.44;4954197;28;20103;-93
2021/08/20 16:17:29;;;;;;;4.35;1.70;;;;;;;24.65;60.51;100539.75;4954166;28;20075;-93
2021/08/20 16:19:54;;;;;;;1.83;1.30;;;;;;;24.62;60.40;100549.00;4954297;28;20466;-93
2021/08/20 16:22:21;;;;;;;4.80;2.03;;;;;;;24.50;59.99;100540.63;4954026;28;20479;-94
2021/08/20 16:24:46;;;;;;;5.55;2.30;;;;;;;24.38;60.75;100544.84;4953987;28;20035;-94
2021/08/20 16:27:12;;;;;;;4.35;1.67;;;;;;;24.40;60.36;100548.16;4954125;28;20363;-94
2021/08/20 16:29:37;;;;;;;3.75;1.50;;;;;;;24.43;60.35;100547.78;4954376;29;20601;-93
2021/08/20 16:32:02;;;;;;;2.92;1.67;;;;;;;24.48;60.31;100550.72;4954094;28;20035;-93
2021/08/20 16:34:29;;;;;;;3.38;1.60;;;;;;;24.47;60.24;100540.19;4953986;28;20039;-95
2021/08/20 16:36:55;;;;;;;4.82;1.95;;;;;;;24.45;60.33;100543.06;4953967;29;20058;-93
2021/08/20 16:39:21;;;;;;;4.50;2.38;;;;;;;24.46;60.98;100541.19;4953729;28;20114;-94
2021/08/20 16:41:46;;;;;;;4.57;1.48;;;;;;;24.51;61.37;100544.19;4968841;28;20027;-94
2021/08/20 16:44:12;;;;;;;3.70;1.75;;;;;;;24.27;62.36;100542.66;4954025;28;20100;-93
2021/08/20 16:46:39;;;;;;;2.92;1.90;;;;;;;24.18;62.41;100543.81;4954075;29;20058;-93
2021/08/20 16:49:04;;;;;;;3.90;1.55;;;;;;;24.18;62.55;100541.97;4953750;28;20445;-94
2021/08/20 16:51:30;;;;;;;2.75;1.77;;;;;;;24.17;63.06;100539.47;4968576;28;20027;-94
2021/08/20 16:53:56;;;;;;;2.03;1.50;;;;;;;24.17;62.99;100542.13;4968624;28;20085;-94
2021/08/20 16:56:21;;;;;;;4.80;2.38;;;;;;;24.21;63.02;100538.06;4968565;28;20374;-93
2021/08/20 16:58:47;;;;;;;1.73;1.60;;;;;;;24.26;62.14;100541.00;4953855;29;20118;-93
2021/08/20 17:01:12;;;;;;;1.90;1.27;;;;;;;24.31;62.26;100543.97;4953980;28;20427;-94
2021/08/20 17:03:37;;;;;;;3.53;1.85;;;;;;;24.38;62.40;100542.16;4953692;28;20038;-95
2021/08/20 17:06:03;;;;;;;3.25;2.15;;;;;;;24.41;62.57;100543.63;4953646;28;20049;-94
2021/08/20 17:08:30;;;;;;;4.68;2.25;;;;;;;24.46;62.55;100549.25;4953798;28;20517;-92
2021/08/20 17:10:56;;;;;;;2.78;1.60;;;;;;;24.64;61.88;100554.19;4953860;28;20104;-95
2021/08/20 17:13:21;;;;;;;5.03;2.05;;;;;;;24.80;62.01;100556.59;4953686;28;20489;-93
2021/08/20 17:15:46;;;;;;;3.78;2.00;;;;;;;24.87;61.28;100546.75;4953540;28;20027;-94
2021/08/20 17:18:13;;;;;;;2.78;1.75;;;;;;;24.86;60.36;100545.09;4953751;28;20035;-94
2021/08/20 17:20:40;;;;;;;4.38;2.00;;;;;;;24.96;60.12;100560.88;4953605;28;20055;-94
2021/08/20 17:23:07;;;;;;;3.95;1.90;;;;;;;25.07;59.34;100552.25;4953627;28;20027;-94
2021/08/20 17:25:32;;;;;;;6.68;2.40;;;;;;;24.90;59.13;100557.13;4953355;28;20119;-93
2021/08/20 17:27:58;;;;;;;2.83;1.75;;;;;;;25.06;58.04;100557.81;4953562;28;20110;-94
2021/08/20 17:30:23;;;;;;;3.53;2.10;;;;;;;25.11;58.06;100560.75;4957981;29;20102;-93
2021/08/20 17:32:48;;;;;;;3.08;2.00;;;;;;;25.06;57.20;100553.31;4959336;29;20434;-94
2021/08/20 17:35:14;;;;;;;6.95;2.83;;;;;;;24.93;57.53;100562.09;4957903;28;20042;-93
2021/08/20 17:37:39;;;;;;;6.47;2.90;;;;;;;24.71;57.33;100566.66;4957148;28;20030;-93
2021/08/20 17:40:14;;;;;;;7.32;3.20;;;;;;;24.93;56.61;100562.09;4956342;29;20430;-94
2021/08/20 17:42:41;;;;;;;8.88;2.63;;;;;;;24.96;55.96;100565.41;4957582;28;20023;-93
2021/08/20 17:45:07;;;;;;;6.63;2.80;;;;;;;24.93;56.14;100556.72;4972261;28;20078;-93
2021/08/20 17:47:33;;;;;;;4.20;2.33;;;;;;;24.86;56.68;100566.59;4957377;28;20027;-93
2021/08/20 17:49:58;;;;;;;5.60;2.45;;;;;;;24.59;56.46;100564.69;4957401;28;20497;-93
2021/08/20 17:52:24;;;;;;;4.57;2.33;;;;;;;24.45;56.31;100552.97;4956968;28;20031;-95
2021/08/20 17:54:50;;;;;;;7.05;2.10;;;;;;;24.64;55.74;100564.94;4957219;28;20070;-94
2021/08/20 17:57:15;;;;;;;4.13;1.83;;;;;;;24.74;55.63;100568.97;4957442;28;20614;-94
2021/08/20 17:59:40;;;;;;;3.80;1.65;;;;;;;24.64;55.76;100560.38;4962268;28;20031;-92
2021/08/20 18:02:06;;;;;;;3.15;1.92;;;;;;;24.67;55.79;100568.06;4964305;28;20489;-93
2021/08/20 18:04:33;;;;;;;4.45;1.85;;;;;;;24.50;56.65;100561.25;4959038;28;20483;-92
2021/08/20 18:06:58;;;;;;;2.80;1.80;;;;;;;24.61;56.35;100555.41;4957438;28;20033;-94